Time,TemperatureF,DewpointF,PressureIn,WindDirection,WindDirectionDegrees,WindSpeedMPH,WindSpeedGustMPH,Humidity,HourlyPrecipIn,Conditions,Clouds,dailyrainin,SoftwareType,DateUTC
2013-04-23 00:04:00,56.4,46.8,29.87,ESE,113,0.0,0.4,70,0.00,,,0.00,WUHU216HW,2013-04-23 07:04:00,
2013-04-23 00:09:00,56.4,46.8,29.87,SE,135,0.0,0.4,70,0.00,,,0.00,WUHU216HW,2013-04-23 07:09:00,
2013-04-23 00:14:00,56.3,46.6,29.87,SE,135,0.0,0.0,70,0.00,,,0.00,WUHU216HW,2013-04-23 07:14:00,
2013-04-23 00:19:00,56.3,46.6,29.87,SE,135,0.0,0.0,70,0.00,,,0.00,WUHU216HW,2013-04-23 07:19:00,
2013-04-23 00:24:00,56.3,46.6,29.87,SE,135,0.0,0.0,70,0.00,,,0.00,WUHU216HW,2013-04-23 07:24:00,
2013-04-23 00:29:00,56.3,46.8,29.87,ESE,113,0.0,0.0,70,0.00,,,0.00,WUHU216HW,2013-04-23 07:29:00,
2013-04-23 00:35:00,56.3,46.6,29.87,SSE,158,0.0,0.0,70,0.00,,,0.00,WUHU216HW,2013-04-23 07:35:00,
2013-04-23 00:40:00,56.1,46.5,29.86,SSE,158,0.0,0.0,70,0.00,,,0.00,WUHU216HW,2013-04-23 07:40:00,
2013-04-23 00:45:00,56.1,46.5,29.87,SSE,158,0.0,0.0,70,0.00,,,0.00,WUHU216HW,2013-04-23 07:45:00,
2013-04-23 00:50:00,56.1,46.5,29.86,SSE,158,0.0,0.0,70,0.00,,,0.00,WUHU216HW,2013-04-23 07:50:00,
2013-04-23 00:55:00,55.9,46.3,29.86,South,180,0.0,0.0,70,0.00,,,0.00,WUHU216HW,2013-04-23 07:55:00,
2013-04-23 01:00:00,55.9,46.6,29.86,SSE,158,0.0,0.0,71,0.00,,,0.00,WUHU216HW,2013-04-23 08:00:00,
2013-04-23 01:05:00,55.7,46.5,29.86,SSE,158,0.0,0.0,71,0.00,,,0.00,WUHU216HW,2013-04-23 08:05:00,
2013-04-23 01:10:00,55.7,46.5,29.86,South,180,0.0,0.0,71,0.00,,,0.00,WUHU216HW,2013-04-23 08:10:00,
2013-04-23 01:15:00,55.7,46.5,29.86,South,180,0.0,0.0,71,0.00,,,0.00,WUHU216HW,2013-04-23 08:15:00,
2013-04-23 01:20:00,55.5,46.3,29.86,South,180,0.0,0.0,71,0.00,,,0.00,WUHU216HW,2013-04-23 08:20:00,
2013-04-23 01:25:00,55.5,46.3,29.86,South,180,0.0,0.0,71,0.00,,,0.00,WUHU216HW,2013-04-23 08:25:00,
2013-04-23 01:30:00,55.5,46.3,29.86,South,180,0.0,0.0,71,0.00,,,0.00,WUHU216HW,2013-04-23 08:30:00,
2013-04-23 01:35:00,55.5,46.3,29.86,South,180,0.0,0.0,71,0.00,,,0.00,WUHU216HW,2013-04-23 08:35:00,
2013-04-23 01:40:00,55.5,46.3,29.86,South,180,0.0,0.0,71,0.00,,,0.00,WUHU216HW,2013-04-23 08:40:00,
2013-04-23 01:45:00,55.4,46.2,29.86,South,180,0.0,0.0,71,0.00,,,0.00,WUHU216HW,2013-04-23 08:45:00,
2013-04-23 01:50:00,55.2,46.0,29.85,South,180,0.0,0.0,71,0.00,,,0.00,WUHU216HW,2013-04-23 08:50:00,
2013-04-23 01:56:00,55.2,46.0,29.85,South,180,0.0,0.0,71,0.00,,,0.00,WUHU216HW,2013-04-23 08:56:00,
2013-04-23 02:01:00,55.2,46.0,29.85,South,180,0.0,0.0,71,0.00,,,0.00,WUHU216HW,2013-04-23 09:01:00,
2013-04-23 02:06:00,55.0,45.8,29.85,NW,315,0.0,0.0,71,0.00,,,0.00,WUHU216HW,2013-04-23 09:06:00,
2013-04-23 02:11:00,55.0,44.6,29.85,WNW,293,0.8,0.8,68,0.00,,,0.00,WUHU216HW,2013-04-23 09:11:00,
2013-04-23 02:16:00,55.0,43.8,29.85,SSW,203,0.0,0.8,66,0.00,,,0.00,WUHU216HW,2013-04-23 09:16:00,
2013-04-23 02:21:00,55.2,45.2,29.85,SW,225,0.0,0.8,69,0.00,,,0.00,WUHU216HW,2013-04-23 09:21:00,
2013-04-23 02:26:00,55.2,45.2,29.85,SW,225,0.0,0.0,69,0.00,,,0.00,WUHU216HW,2013-04-23 09:26:00,
2013-04-23 02:31:00,55.0,45.5,29.85,ESE,113,0.0,0.0,70,0.00,,,0.00,WUHU216HW,2013-04-23 09:31:00,
2013-04-23 02:36:00,54.6,45.1,29.85,WSW,248,0.0,0.0,70,0.00,,,0.00,WUHU216HW,2013-04-23 09:36:00,
2013-04-23 02:41:00,54.6,45.4,29.85,SW,225,0.0,0.0,71,0.00,,,0.00,WUHU216HW,2013-04-23 09:41:00,
2013-04-23 02:46:00,54.5,45.6,29.85,SSE,158,0.0,0.0,72,0.00,,,0.00,WUHU216HW,2013-04-23 09:46:00,
2013-04-23 02:51:00,54.5,45.1,29.84,West,270,0.0,0.0,71,0.00,,,0.00,WUHU216HW,2013-04-23 09:51:00,
2013-04-23 02:56:00,54.5,42.9,29.85,West,270,0.0,0.0,65,0.00,,,0.00,WUHU216HW,2013-04-23 09:56:00,
2013-04-23 03:01:00,55.0,41.7,29.85,WNW,293,0.0,0.6,61,0.00,,,0.00,WUHU216HW,2013-04-23 10:01:00,
2013-04-23 03:06:00,55.9,41.3,29.85,NNW,338,0.0,0.6,58,0.00,,,0.00,WUHU216HW,2013-04-23 10:06:00,
2013-04-23 03:11:00,56.3,40.2,29.85,WNW,293,1.1,1.1,55,0.00,,,0.00,WUHU216HW,2013-04-23 10:11:00,
2013-04-23 03:17:00,56.8,40.3,29.85,SE,135,0.0,1.1,54,0.00,,,0.00,WUHU216HW,2013-04-23 10:17:00,
2013-04-23 03:22:00,57.3,39.4,29.85,WNW,293,0.0,3.3,51,0.00,,,0.00,WUHU216HW,2013-04-23 10:22:00,
2013-04-23 03:27:00,57.9,38.9,29.85,NNW,338,0.0,3.3,49,0.00,,,0.00,WUHU216HW,2013-04-23 10:27:00,
2013-04-23 03:32:00,58.4,38.2,29.85,NW,315,0.0,0.0,47,0.00,,,0.00,WUHU216HW,2013-04-23 10:32:00,
2013-04-23 03:37:00,58.8,38.5,29.85,WNW,293,0.0,0.0,47,0.00,,,0.00,WUHU216HW,2013-04-23 10:37:00,
2013-04-23 03:42:00,58.8,37.9,29.85,WNW,293,0.0,0.0,46,0.00,,,0.00,WUHU216HW,2013-04-23 10:42:00,
2013-04-23 03:47:00,58.8,37.4,29.85,WNW,293,0.0,1.1,45,0.00,,,0.00,WUHU216HW,2013-04-23 10:47:00,
2013-04-23 03:52:00,58.8,37.4,29.85,West,270,0.0,1.1,45,0.00,,,0.00,WUHU216HW,2013-04-23 10:52:00,
2013-04-23 03:57:00,59.0,37.0,29.85,West,270,0.0,0.0,45,0.00,,,0.00,WUHU216HW,2013-04-23 10:57:00,
2013-04-23 04:02:00,59.1,37.1,29.85,West,270,0.0,0.0,44,0.00,,,0.00,WUHU216HW,2013-04-23 11:02:00,
2013-04-23 04:07:00,59.3,36.7,29.85,WNW,293,0.0,0.0,43,0.00,,,0.00,WUHU216HW,2013-04-23 11:07:00,
2013-04-23 04:12:00,59.5,36.9,29.85,NW,315,0.0,0.0,43,0.00,,,0.00,WUHU216HW,2013-04-23 11:12:00,
2013-04-23 04:17:00,59.5,36.3,29.85,WSW,248,0.0,0.0,42,0.00,,,0.00,WUHU216HW,2013-04-23 11:17:00,
2013-04-23 04:22:00,59.7,36.5,29.86,SSW,203,0.0,0.0,42,0.00,,,0.00,WUHU216HW,2013-04-23 11:22:00,
2013-04-23 04:27:00,59.7,36.5,29.86,NW,315,0.0,0.0,42,0.00,,,0.00,WUHU216HW,2013-04-23 11:27:00,
2013-04-23 04:32:00,59.7,36.5,29.85,WNW,293,0.0,0.0,42,0.00,,,0.00,WUHU216HW,2013-04-23 11:32:00,
2013-04-23 04:37:00,59.7,35.9,29.86,ESE,113,0.0,0.0,41,0.00,,,0.00,WUHU216HW,2013-04-23 11:37:00,
2013-04-23 04:43:00,59.7,35.9,29.86,NW,315,0.0,0.0,41,0.00,,,0.00,WUHU216HW,2013-04-23 11:43:00,
2013-04-23 04:48:00,59.7,35.3,29.86,SSW,203,0.0,0.0,40,0.00,,,0.00,WUHU216HW,2013-04-23 11:48:00,
2013-04-23 04:53:00,59.9,35.5,29.86,WNW,293,0.0,1.5,40,0.00,,,0.00,WUHU216HW,2013-04-23 11:53:00,
2013-04-23 04:58:00,59.9,34.7,29.86,SW,225,0.0,1.5,39,0.00,,,0.00,WUHU216HW,2013-04-23 11:58:00,
2013-04-23 05:03:00,60.0,34.9,29.86,WNW,293,0.0,0.6,39,0.00,,,0.00,WUHU216HW,2013-04-23 12:03:00,
2013-04-23 05:08:00,60.4,34.5,29.86,NW,315,0.0,0.0,38,0.00,,,0.00,WUHU216HW,2013-04-23 12:08:00,
2013-04-23 05:13:00,60.4,34.5,29.86,ESE,113,0.0,0.0,38,0.00,,,0.00,WUHU216HW,2013-04-23 12:13:00,
2013-04-23 05:18:00,60.4,34.5,29.86,West,270,0.0,0.0,38,0.00,,,0.00,WUHU216HW,2013-04-23 12:18:00,
2013-04-23 05:23:00,60.6,33.9,29.86,ESE,113,2.9,2.9,37,0.00,,,0.00,WUHU216HW,2013-04-23 12:23:00,
2013-04-23 05:28:00,60.6,33.2,29.86,NNE,23,0.0,2.9,36,0.00,,,0.00,WUHU216HW,2013-04-23 12:28:00,
2013-04-23 05:33:00,60.6,33.2,29.86,WNW,293,0.8,2.9,36,0.00,,,0.00,WUHU216HW,2013-04-23 12:33:00,
2013-04-23 05:38:00,60.6,33.2,29.86,WSW,248,0.0,0.8,36,0.00,,,0.00,WUHU216HW,2013-04-23 12:38:00,
2013-04-23 05:43:00,60.6,33.2,29.86,NW,315,0.0,0.0,36,0.00,,,0.00,WUHU216HW,2013-04-23 12:43:00,
2013-04-23 05:48:00,60.6,33.2,29.87,South,180,0.0,0.0,36,0.00,,,0.00,WUHU216HW,2013-04-23 12:48:00,
2013-04-23 05:53:00,60.6,33.2,29.86,ESE,113,0.0,0.0,36,0.00,,,0.00,WUHU216HW,2013-04-23 12:53:00,
2013-04-23 05:58:00,60.6,33.2,29.86,West,270,0.0,0.0,36,0.00,,,0.00,WUHU216HW,2013-04-23 12:58:00,
2013-04-23 06:03:00,60.4,33.1,29.87,WNW,293,0.0,0.0,36,0.00,,,0.00,WUHU216HW,2013-04-23 13:03:00,
2013-04-23 06:09:00,60.2,32.9,29.86,WNW,293,0.0,0.0,36,0.00,,,0.00,WUHU216HW,2013-04-23 13:09:00,
2013-04-23 06:14:00,60.0,33.5,29.87,WNW,293,0.0,0.0,37,0.00,,,0.00,WUHU216HW,2013-04-23 13:14:00,
2013-04-23 06:19:00,59.9,33.3,29.87,WNW,293,0.0,0.0,37,0.00,,,0.00,WUHU216HW,2013-04-23 13:19:00,
2013-04-23 06:24:00,59.7,32.5,29.87,North,0,0.0,0.0,36,0.00,,,0.00,WUHU216HW,2013-04-23 13:24:00,
2013-04-23 06:29:00,59.7,32.5,29.87,NNE,23,0.0,0.0,36,0.00,,,0.00,WUHU216HW,2013-04-23 13:29:00,
2013-04-23 06:34:00,59.9,31.9,29.87,SSE,158,0.0,0.0,35,0.00,,,0.00,WUHU216HW,2013-04-23 13:34:00,
2013-04-23 06:39:00,60.0,32.1,29.87,SE,135,0.0,0.0,35,0.00,,,0.00,WUHU216HW,2013-04-23 13:39:00,
2013-04-23 06:44:00,60.0,31.3,29.87,NE,45,0.0,0.0,34,0.00,,,0.00,WUHU216HW,2013-04-23 13:44:00,
2013-04-23 06:49:00,60.0,31.3,29.87,WSW,248,0.0,0.0,34,0.00,,,0.00,WUHU216HW,2013-04-23 13:49:00,
2013-04-23 06:54:00,60.4,31.6,29.88,ESE,113,0.0,0.0,34,0.00,,,0.00,WUHU216HW,2013-04-23 13:54:00,
2013-04-23 06:59:00,60.6,31.1,29.88,NNW,338,0.0,2.0,33,0.00,,,0.00,WUHU216HW,2013-04-23 13:59:00,
2013-04-23 07:04:00,60.6,31.1,29.88,North,0,0.0,2.0,33,0.00,,,0.00,WUHU216HW,2013-04-23 14:04:00,
2013-04-23 07:09:00,60.6,31.1,29.88,SSE,158,0.0,0.0,33,0.00,,,0.00,WUHU216HW,2013-04-23 14:09:00,
2013-04-23 07:14:00,60.8,31.2,29.88,SSW,203,0.0,5.3,33,0.00,,,0.00,WUHU216HW,2013-04-23 14:14:00,
2013-04-23 07:19:00,60.6,31.1,29.88,NW,315,2.2,5.3,33,0.00,,,0.00,WUHU216HW,2013-04-23 14:19:00,
2013-04-23 07:25:00,60.8,31.2,29.89,WSW,248,0.0,2.2,33,0.00,,,0.00,WUHU216HW,2013-04-23 14:25:00,
2013-04-23 07:30:00,60.9,30.7,29.89,West,270,0.0,2.2,32,0.00,,,0.00,WUHU216HW,2013-04-23 14:30:00,
2013-04-23 07:35:00,60.9,30.7,29.89,WNW,293,0.0,0.0,32,0.00,,,0.00,WUHU216HW,2013-04-23 14:35:00,
2013-04-23 07:40:00,61.1,31.6,29.89,South,180,0.0,0.0,33,0.00,,,0.00,WUHU216HW,2013-04-23 14:40:00,
2013-04-23 07:45:00,61.1,31.6,29.89,ESE,113,0.0,0.0,33,0.00,,,0.00,WUHU216HW,2013-04-23 14:45:00,
2013-04-23 07:50:00,61.3,31.7,29.89,WNW,293,0.0,0.0,33,0.00,,,0.00,WUHU216HW,2013-04-23 14:50:00,
2013-04-23 07:55:00,61.3,31.7,29.90,WSW,248,0.0,0.0,33,0.00,,,0.00,WUHU216HW,2013-04-23 14:55:00,
2013-04-23 08:00:00,61.3,31.7,29.90,North,0,0.0,0.0,33,0.00,,,0.00,WUHU216HW,2013-04-23 15:00:00,
2013-04-23 08:05:00,61.5,31.9,29.90,WNW,293,0.8,2.9,33,0.00,,,0.00,WUHU216HW,2013-04-23 15:05:00,
2013-04-23 08:10:00,61.8,32.2,29.90,NW,315,1.7,2.9,33,0.00,,,0.00,WUHU216HW,2013-04-23 15:10:00,
2013-04-23 08:15:00,62.0,31.6,29.90,ESE,113,0.0,1.7,32,0.00,,,0.00,WUHU216HW,2013-04-23 15:15:00,
2013-04-23 08:20:00,62.2,31.8,29.90,WNW,293,1.1,1.7,32,0.00,,,0.00,WUHU216HW,2013-04-23 15:20:00,
2013-04-23 08:25:00,62.4,32.0,29.91,ESE,113,0.0,1.1,32,0.00,,,0.00,WUHU216HW,2013-04-23 15:25:00,
2013-04-23 08:30:00,62.7,32.3,29.91,West,270,0.0,2.0,32,0.00,,,0.00,WUHU216HW,2013-04-23 15:30:00,
2013-04-23 08:35:00,62.9,32.5,29.91,WNW,293,0.0,2.0,32,0.00,,,0.00,WUHU216HW,2013-04-23 15:35:00,
2013-04-23 08:40:00,63.3,32.8,29.91,ESE,113,0.0,3.1,32,0.00,,,0.00,WUHU216HW,2013-04-23 15:40:00,
2013-04-23 08:45:00,63.3,32.8,29.91,SW,225,0.0,3.1,32,0.00,,,0.00,WUHU216HW,2013-04-23 15:45:00,
2013-04-23 08:50:00,63.6,33.1,29.91,NNW,338,0.0,0.0,32,0.00,,,0.00,WUHU216HW,2013-04-23 15:50:00,
2013-04-23 08:56:00,64.0,33.4,29.91,WNW,293,0.0,0.0,32,0.00,,,0.00,WUHU216HW,2013-04-23 15:56:00,
2013-04-23 09:01:00,64.4,33.6,29.91,SSW,203,0.0,0.0,32,0.00,,,0.00,WUHU216HW,2013-04-23 16:01:00,
2013-04-23 09:06:00,64.5,33.2,29.91,WNW,293,0.0,0.0,31,0.00,,,0.00,WUHU216HW,2013-04-23 16:06:00,
2013-04-23 09:11:00,64.9,33.5,29.91,West,270,0.0,0.0,31,0.00,,,0.00,WUHU216HW,2013-04-23 16:11:00,
2013-04-23 09:16:00,65.3,33.7,29.91,WSW,248,0.0,0.0,31,0.00,,,0.00,WUHU216HW,2013-04-23 16:16:00,
2013-04-23 09:21:00,65.4,34.0,29.92,WSW,248,0.0,0.0,31,0.00,,,0.00,WUHU216HW,2013-04-23 16:21:00,
2013-04-23 09:26:00,65.8,34.3,29.92,WSW,248,0.0,0.0,31,0.00,,,0.00,WUHU216HW,2013-04-23 16:26:00,
2013-04-23 09:31:00,66.0,35.2,29.92,West,270,0.0,0.0,32,0.00,,,0.00,WUHU216HW,2013-04-23 16:31:00,
2013-04-23 09:36:00,66.3,34.8,29.92,West,270,0.0,0.0,31,0.00,,,0.00,WUHU216HW,2013-04-23 16:36:00,
2013-04-23 09:41:00,66.7,35.1,29.92,NNE,23,0.0,2.2,31,0.00,,,0.00,WUHU216HW,2013-04-23 16:41:00,
2013-04-23 09:46:00,67.2,34.7,29.92,ESE,113,0.0,2.2,30,0.00,,,0.00,WUHU216HW,2013-04-23 16:46:00,
2013-04-23 09:51:00,67.8,35.2,29.92,ESE,113,0.0,0.8,30,0.00,,,0.00,WUHU216HW,2013-04-23 16:51:00,
2013-04-23 09:56:00,68.1,36.3,29.92,South,180,0.0,0.8,31,0.00,,,0.00,WUHU216HW,2013-04-23 16:56:00,
2013-04-23 10:01:00,68.3,35.7,29.92,WNW,293,0.0,0.0,30,0.00,,,0.00,WUHU216HW,2013-04-23 17:01:00,
2013-04-23 10:06:00,68.5,35.9,29.92,West,270,0.0,0.0,30,0.00,,,0.00,WUHU216HW,2013-04-23 17:06:00,
2013-04-23 10:12:00,68.7,36.0,29.92,WNW,293,0.0,0.0,30,0.00,,,0.00,WUHU216HW,2013-04-23 17:12:00,
2013-04-23 10:17:00,69.0,37.1,29.92,South,180,0.0,0.0,31,0.00,,,0.00,WUHU216HW,2013-04-23 17:17:00,
2013-04-23 10:22:00,69.4,36.7,29.92,WNW,293,0.0,0.0,30,0.00,,,0.00,WUHU216HW,2013-04-23 17:22:00,
2013-04-23 10:27:00,69.9,37.2,29.92,SSE,158,0.0,0.0,30,0.00,,,0.00,WUHU216HW,2013-04-23 17:27:00,
2013-04-23 10:32:00,70.3,36.5,29.91,North,0,2.2,2.2,29,0.00,,,0.00,WUHU216HW,2013-04-23 17:32:00,
2013-04-23 10:37:00,70.5,36.6,29.91,NW,315,0.0,2.2,29,0.00,,,0.00,WUHU216HW,2013-04-23 17:37:00,
2013-04-23 10:42:00,70.8,34.9,29.92,West,270,0.0,2.2,27,0.00,,,0.00,WUHU216HW,2013-04-23 17:42:00,
2013-04-23 10:47:00,71.2,36.2,29.92,NNE,23,1.3,1.3,28,0.00,,,0.00,WUHU216HW,2013-04-23 17:47:00,
2013-04-23 10:52:00,71.4,36.4,29.92,SW,225,0.0,1.3,28,0.00,,,0.00,WUHU216HW,2013-04-23 17:52:00,
2013-04-23 10:57:00,71.9,36.8,29.92,NW,315,0.0,1.3,28,0.00,,,0.00,WUHU216HW,2013-04-23 17:57:00,
2013-04-23 11:02:00,72.1,37.0,29.92,ENE,68,0.0,0.8,28,0.00,,,0.00,WUHU216HW,2013-04-23 18:02:00,
2013-04-23 11:07:00,72.3,37.1,29.92,West,270,5.1,5.1,28,0.00,,,0.00,WUHU216HW,2013-04-23 18:07:00,
2013-04-23 11:12:00,73.0,35.7,29.92,WSW,248,0.0,5.1,26,0.00,,,0.00,WUHU216HW,2013-04-23 18:12:00,
2013-04-23 11:17:00,73.2,35.9,29.92,WNW,293,0.0,0.6,26,0.00,,,0.00,WUHU216HW,2013-04-23 18:17:00,
2013-04-23 11:22:00,73.5,36.2,29.92,SW,225,0.0,0.0,26,0.00,,,0.00,WUHU216HW,2013-04-23 18:22:00,
2013-04-23 11:28:00,74.1,36.6,29.92,SE,135,4.9,4.9,26,0.00,,,0.00,WUHU216HW,2013-04-23 18:28:00,
2013-04-23 11:33:00,75.0,36.4,29.92,ENE,68,0.0,4.9,25,0.00,,,0.00,WUHU216HW,2013-04-23 18:33:00,
2013-04-23 11:38:00,75.2,36.5,29.92,WSW,248,0.0,0.0,25,0.00,,,0.00,WUHU216HW,2013-04-23 18:38:00,
2013-04-23 11:43:00,75.5,36.8,29.92,ESE,113,5.5,5.5,25,0.00,,,0.00,WUHU216HW,2013-04-23 18:43:00,
2013-04-23 11:48:00,76.1,37.8,29.92,WSW,248,1.5,5.5,25,0.00,,,0.00,WUHU216HW,2013-04-23 18:48:00,
2013-04-23 11:53:00,76.8,37.9,29.92,South,180,0.0,1.5,25,0.00,,,0.00,WUHU216HW,2013-04-23 18:53:00,
2013-04-23 11:58:00,77.1,38.2,29.92,SSE,158,2.2,2.2,25,0.00,,,0.00,WUHU216HW,2013-04-23 18:58:00,
2013-04-23 12:03:00,77.5,38.8,29.92,SSE,158,1.3,3.5,25,0.00,,,0.00,WUHU216HW,2013-04-23 19:03:00,
2013-04-23 12:08:00,78.4,38.2,29.92,SW,225,0.0,3.5,24,0.00,,,0.00,WUHU216HW,2013-04-23 19:08:00,
2013-04-23 12:13:00,78.6,41.5,29.92,SW,225,4.4,4.9,27,0.00,,,0.00,WUHU216HW,2013-04-23 19:13:00,
2013-04-23 12:18:00,78.0,44.2,29.92,West,270,4.4,4.9,30,0.00,,,0.00,WUHU216HW,2013-04-23 19:18:00,
2013-04-23 12:23:00,77.7,45.4,29.92,SE,135,2.6,6.0,32,0.00,,,0.00,WUHU216HW,2013-04-23 19:23:00,
2013-04-23 12:28:00,77.0,45.6,29.92,SSW,203,3.3,6.0,33,0.00,,,0.00,WUHU216HW,2013-04-23 19:28:00,
2013-04-23 12:33:00,76.2,45.7,29.92,SW,225,2.4,4.2,34,0.00,,,0.00,WUHU216HW,2013-04-23 19:33:00,
2013-04-23 12:39:00,75.9,46.1,29.92,SSW,203,2.6,4.2,35,0.00,,,0.00,WUHU216HW,2013-04-23 19:39:00,
2013-04-23 12:44:00,75.0,46.0,29.92,SSE,158,2.0,3.1,36,0.00,,,0.00,WUHU216HW,2013-04-23 19:44:00,
2013-04-23 12:49:00,74.8,46.6,29.92,SW,225,4.2,5.3,37,0.00,,,0.00,WUHU216HW,2013-04-23 19:49:00,
2013-04-23 12:54:00,74.4,46.9,29.92,SSW,203,1.1,8.2,38,0.00,,,0.00,WUHU216HW,2013-04-23 19:54:00,
2013-04-23 12:59:00,73.9,46.6,29.92,South,180,5.3,8.2,38,0.00,,,0.00,WUHU216HW,2013-04-23 19:59:00,
2013-04-23 13:04:00,73.4,46.9,29.92,SW,225,7.6,7.8,39,0.00,,,0.00,WUHU216HW,2013-04-23 20:04:00,
2013-04-23 13:09:00,73.0,46.5,29.92,SW,225,5.1,7.8,39,0.00,,,0.00,WUHU216HW,2013-04-23 20:09:00,
2013-04-23 13:14:00,71.9,46.3,29.92,SSW,203,0.0,5.5,40,0.00,,,0.00,WUHU216HW,2013-04-23 20:14:00,
2013-04-23 13:19:00,71.7,46.7,29.92,South,180,1.1,5.1,41,0.00,,,0.00,WUHU216HW,2013-04-23 20:19:00,
2013-04-23 13:24:00,70.8,46.9,29.92,SW,225,5.3,6.7,42,0.00,,,0.00,WUHU216HW,2013-04-23 20:24:00,
2013-04-23 13:29:00,70.7,47.0,29.92,WSW,248,6.2,6.7,43,0.00,,,0.00,WUHU216HW,2013-04-23 20:29:00,
2013-04-23 13:34:00,70.5,47.4,29.92,SSE,158,7.8,7.8,44,0.00,,,0.00,WUHU216HW,2013-04-23 20:34:00,
2013-04-23 13:39:00,70.3,47.8,29.92,South,180,2.4,7.8,44,0.00,,,0.00,WUHU216HW,2013-04-23 20:39:00,
2013-04-23 13:44:00,70.3,47.8,29.92,SW,225,5.8,7.8,45,0.00,,,0.00,WUHU216HW,2013-04-23 20:44:00,
2013-04-23 13:49:00,69.6,47.2,29.92,South,180,4.2,7.8,45,0.00,,,0.00,WUHU216HW,2013-04-23 20:49:00,
2013-04-23 13:54:00,69.6,47.2,29.92,SSW,203,4.4,6.2,45,0.00,,,0.00,WUHU216HW,2013-04-23 20:54:00,
2013-04-23 14:00:00,69.6,47.2,29.92,SW,225,0.0,4.6,45,0.00,,,0.00,WUHU216HW,2013-04-23 21:00:00,
2013-04-23 14:05:00,69.4,47.6,29.92,South,180,7.1,7.1,46,0.00,,,0.00,WUHU216HW,2013-04-23 21:05:00,
2013-04-23 14:10:00,69.4,47.6,29.92,SSW,203,5.1,7.1,46,0.00,,,0.00,WUHU216HW,2013-04-23 21:10:00,
2013-04-23 14:15:00,69.2,46.9,29.92,SW,225,5.5,7.1,45,0.00,,,0.00,WUHU216HW,2013-04-23 21:15:00,
2013-04-23 14:20:00,68.1,47.1,29.93,SE,135,4.0,8.0,47,0.00,,,0.00,WUHU216HW,2013-04-23 21:20:00,
2013-04-23 14:25:00,67.8,47.9,29.92,SSW,203,2.6,8.0,49,0.00,,,0.00,WUHU216HW,2013-04-23 21:25:00,
2013-04-23 14:30:00,67.2,46.9,29.92,East,90,6.9,6.9,48,0.00,,,0.00,WUHU216HW,2013-04-23 21:30:00,
2013-04-23 14:35:00,67.6,47.2,29.92,SSW,203,3.1,7.1,48,0.00,,,0.00,WUHU216HW,2013-04-23 21:35:00,
2013-04-23 14:40:00,67.8,47.3,29.91,SSW,203,8.2,8.2,48,0.00,,,0.00,WUHU216HW,2013-04-23 21:40:00,
2013-04-23 14:45:00,67.8,47.3,29.91,South,180,3.5,8.2,48,0.00,,,0.00,WUHU216HW,2013-04-23 21:45:00,
2013-04-23 14:50:00,68.1,47.7,29.91,SSE,158,5.3,8.2,48,0.00,,,0.00,WUHU216HW,2013-04-23 21:50:00,
2013-04-23 14:55:00,67.8,47.3,29.91,SSE,158,5.8,7.8,48,0.00,,,0.00,WUHU216HW,2013-04-23 21:55:00,
2013-04-23 15:00:00,67.8,47.3,29.91,SE,135,5.5,5.8,48,0.00,,,0.00,WUHU216HW,2013-04-23 22:00:00,
2013-04-23 15:05:00,67.8,47.3,29.91,SE,135,6.4,6.4,48,0.00,,,0.00,WUHU216HW,2013-04-23 22:05:00,
2013-04-23 15:10:00,67.8,47.3,29.91,SE,135,6.0,6.4,48,0.00,,,0.00,WUHU216HW,2013-04-23 22:10:00,
2013-04-23 15:15:00,67.8,47.3,29.91,SSE,158,4.4,6.4,48,0.00,,,0.00,WUHU216HW,2013-04-23 22:15:00,
2013-04-23 15:21:00,67.8,47.3,29.90,SSE,158,5.5,6.0,48,0.00,,,0.00,WUHU216HW,2013-04-23 22:21:00,
2013-04-23 15:26:00,67.8,47.3,29.91,SSE,158,4.2,7.3,48,0.00,,,0.00,WUHU216HW,2013-04-23 22:26:00,
2013-04-23 15:31:00,67.2,47.4,29.90,SSE,158,4.6,7.3,49,0.00,,,0.00,WUHU216HW,2013-04-23 22:31:00,
2013-04-23 15:36:00,67.1,47.3,29.90,WSW,248,2.6,4.6,49,0.00,,,0.00,WUHU216HW,2013-04-23 22:36:00,
2013-04-23 15:41:00,66.7,47.6,29.90,SW,225,4.2,4.6,50,0.00,,,0.00,WUHU216HW,2013-04-23 22:41:00,
2013-04-23 15:46:00,66.3,47.2,29.90,WSW,248,1.7,4.2,50,0.00,,,0.00,WUHU216HW,2013-04-23 22:46:00,
2013-04-23 15:51:00,66.0,46.9,29.90,SE,135,6.0,6.2,50,0.00,,,0.00,WUHU216HW,2013-04-23 22:51:00,
2013-04-23 15:56:00,66.2,47.6,29.90,ESE,113,4.4,6.2,51,0.00,,,0.00,WUHU216HW,2013-04-23 22:56:00,
2013-04-23 16:01:00,66.0,47.9,29.90,South,180,7.1,7.1,52,0.00,,,0.00,WUHU216HW,2013-04-23 23:01:00,
2013-04-23 16:06:00,65.8,47.7,29.89,West,270,7.1,8.7,52,0.00,,,0.00,WUHU216HW,2013-04-23 23:06:00,
2013-04-23 16:11:00,65.4,47.8,29.90,South,180,4.9,11.6,53,0.00,,,0.00,WUHU216HW,2013-04-23 23:11:00,
2013-04-23 16:16:00,65.1,47.4,29.90,SSE,158,4.2,12.9,53,0.00,,,0.00,WUHU216HW,2013-04-23 23:16:00,
2013-04-23 16:21:00,65.1,47.9,29.89,SSE,158,4.0,12.9,54,0.00,,,0.00,WUHU216HW,2013-04-23 23:21:00,
2013-04-23 16:26:00,65.1,47.8,29.89,SE,135,4.6,6.4,54,0.00,,,0.00,WUHU216HW,2013-04-23 23:26:00,
2013-04-23 16:31:00,64.7,47.6,29.89,SSE,158,5.8,6.9,54,0.00,,,0.00,WUHU216HW,2013-04-23 23:31:00,
2013-04-23 16:36:00,64.7,47.6,29.89,SSE,158,6.7,6.9,54,0.00,,,0.00,WUHU216HW,2013-04-23 23:36:00,
2013-04-23 16:41:00,64.2,47.5,29.89,SSE,158,6.0,6.9,55,0.00,,,0.00,WUHU216HW,2013-04-23 23:41:00,
2013-04-23 16:46:00,63.6,47.5,29.89,SE,135,3.5,10.0,56,0.00,,,0.00,WUHU216HW,2013-04-23 23:46:00,
2013-04-23 16:52:00,63.3,47.2,29.89,SSE,158,10.5,10.5,56,0.00,,,0.00,WUHU216HW,2013-04-23 23:52:00,
2013-04-23 16:57:00,62.7,46.7,29.89,ESE,113,6.0,10.5,56,0.00,,,0.00,WUHU216HW,2013-04-23 23:57:00,
2013-04-23 17:02:00,62.4,46.9,29.89,SSE,158,7.8,8.0,57,0.00,,,0.00,WUHU216HW,2013-04-24 00:02:00,
2013-04-23 17:07:00,62.2,46.7,29.89,SE,135,5.8,8.0,57,0.00,,,0.00,WUHU216HW,2013-04-24 00:07:00,
2013-04-23 17:12:00,62.2,46.7,29.89,SSE,158,5.3,6.4,57,0.00,,,0.00,WUHU216HW,2013-04-24 00:12:00,
2013-04-23 17:17:00,61.8,46.9,29.89,SE,135,6.0,6.7,58,0.00,,,0.00,WUHU216HW,2013-04-24 00:17:00,
2013-04-23 17:22:00,61.5,46.6,29.89,SE,135,5.5,6.7,58,0.00,,,0.00,WUHU216HW,2013-04-24 00:22:00,
2013-04-23 17:27:00,61.3,46.9,29.89,SE,135,6.7,6.7,59,0.00,,,0.00,WUHU216HW,2013-04-24 00:27:00,
2013-04-23 17:32:00,61.1,47.2,29.88,West,270,6.0,8.2,60,0.00,,,0.00,WUHU216HW,2013-04-24 00:32:00,
2013-04-23 17:37:00,60.8,46.9,29.88,ESE,113,5.1,8.2,60,0.00,,,0.00,WUHU216HW,2013-04-24 00:37:00,
2013-04-23 17:42:00,60.8,46.9,29.88,South,180,6.7,6.7,60,0.00,,,0.00,WUHU216HW,2013-04-24 00:42:00,
2013-04-23 17:47:00,60.6,46.7,29.88,SE,135,5.8,6.9,60,0.00,,,0.00,WUHU216HW,2013-04-24 00:47:00,
2013-04-23 17:52:00,60.4,46.5,29.88,SSE,158,4.0,6.9,60,0.00,,,0.00,WUHU216HW,2013-04-24 00:52:00,
2013-04-23 17:57:00,60.4,46.9,29.88,WSW,248,2.2,4.0,61,0.00,,,0.00,WUHU216HW,2013-04-24 00:57:00,
2013-04-23 18:02:00,60.2,46.8,29.88,South,180,9.8,9.8,61,0.00,,,0.00,WUHU216HW,2013-04-24 01:02:00,
2013-04-23 18:07:00,59.9,46.6,29.88,SSE,158,5.1,9.8,61,0.00,,,0.00,WUHU216HW,2013-04-24 01:07:00,
2013-04-23 18:13:00,59.7,46.6,29.88,SSW,203,3.8,5.5,62,0.00,,,0.00,WUHU216HW,2013-04-24 01:13:00,
2013-04-23 18:18:00,59.5,46.5,29.88,SSE,158,4.0,5.1,62,0.00,,,0.00,WUHU216HW,2013-04-24 01:18:00,
2013-04-23 18:23:00,59.5,46.9,29.88,SW,225,9.1,9.1,63,0.00,,,0.00,WUHU216HW,2013-04-24 01:23:00,
2013-04-23 18:28:00,58.8,46.2,29.88,South,180,0.0,9.1,63,0.00,,,0.00,WUHU216HW,2013-04-24 01:28:00,
2013-04-23 18:33:00,58.8,46.6,29.88,South,180,4.0,4.2,64,0.00,,,0.00,WUHU216HW,2013-04-24 01:33:00,
2013-04-23 18:38:00,58.6,46.4,29.88,SE,135,0.6,4.2,64,0.00,,,0.00,WUHU216HW,2013-04-24 01:38:00,
2013-04-23 18:43:00,58.4,46.2,29.88,SSE,158,6.9,7.3,64,0.00,,,0.00,WUHU216HW,2013-04-24 01:43:00,
2013-04-23 18:48:00,58.1,45.9,29.88,SSE,158,3.3,7.3,64,0.00,,,0.00,WUHU216HW,2013-04-24 01:48:00,
2013-04-23 18:53:00,57.9,46.1,29.88,ESE,113,3.1,5.1,65,0.00,,,0.00,WUHU216HW,2013-04-24 01:53:00,
2013-04-23 18:58:00,57.7,46.0,29.88,SSE,158,0.0,6.4,65,0.00,,,0.00,WUHU216HW,2013-04-24 01:58:00,
2013-04-23 19:03:00,57.9,46.1,29.88,SSE,158,0.0,7.1,65,0.00,,,0.00,WUHU216HW,2013-04-24 02:03:00,
2013-04-23 19:08:00,57.5,45.8,29.88,SSE,158,5.1,7.1,65,0.00,,,0.00,WUHU216HW,2013-04-24 02:08:00,
2013-04-23 19:13:00,57.3,45.6,29.88,SE,135,5.8,5.8,66,0.00,,,0.00,WUHU216HW,2013-04-24 02:13:00,
2013-04-23 19:19:00,57.0,45.7,29.88,SSE,158,6.4,6.4,66,0.00,,,0.00,WUHU216HW,2013-04-24 02:19:00,
2013-04-23 19:24:00,56.8,45.5,29.88,SSE,158,0.0,6.4,66,0.00,,,0.00,WUHU216HW,2013-04-24 02:24:00,
2013-04-23 19:29:00,56.6,45.7,29.88,SSE,158,0.8,6.4,67,0.00,,,0.00,WUHU216HW,2013-04-24 02:29:00,
2013-04-23 19:34:00,56.3,45.4,29.87,ESE,113,1.1,6.2,67,0.00,,,0.00,WUHU216HW,2013-04-24 02:34:00,
2013-04-23 19:39:00,56.1,45.2,29.87,SE,135,3.1,5.3,67,0.00,,,0.00,WUHU216HW,2013-04-24 02:39:00,
2013-04-23 19:44:00,55.9,45.5,29.87,SSE,158,4.4,4.4,68,0.00,,,0.00,WUHU216HW,2013-04-24 02:44:00,
2013-04-23 19:49:00,55.7,45.3,29.87,SE,135,2.2,4.4,68,0.00,,,0.00,WUHU216HW,2013-04-24 02:49:00,
2013-04-23 19:54:00,55.2,45.2,29.87,SE,135,0.8,5.3,69,0.00,,,0.00,WUHU216HW,2013-04-24 02:54:00,
2013-04-23 20:00:00,55.0,45.0,29.87,SE,135,0.6,5.3,69,0.00,,,0.00,WUHU216HW,2013-04-24 03:00:00,
2013-04-23 20:05:00,54.6,44.7,29.88,South,180,5.8,5.8,69,0.00,,,0.00,WUHU216HW,2013-04-24 03:05:00,
2013-04-23 20:11:00,54.5,44.9,29.88,SSE,158,1.5,5.8,70,0.00,,,0.00,WUHU216HW,2013-04-24 03:11:00,
2013-04-23 20:16:00,54.1,44.9,29.88,ESE,113,5.5,5.5,71,0.00,,,0.00,WUHU216HW,2013-04-24 03:16:00,
2013-04-23 20:21:00,54.1,44.9,29.88,SSE,158,4.4,5.5,71,0.00,,,0.00,WUHU216HW,2013-04-24 03:21:00,
2013-04-23 20:26:00,53.9,44.7,29.88,ESE,113,4.6,5.5,71,0.00,,,0.00,WUHU216HW,2013-04-24 03:26:00,
2013-04-23 20:31:00,53.9,44.7,29.88,ESE,113,2.9,4.6,71,0.00,,,0.00,WUHU216HW,2013-04-24 03:31:00,
2013-04-23 20:36:00,53.6,44.4,29.88,SE,135,3.1,4.6,71,0.00,,,0.00,WUHU216HW,2013-04-24 03:36:00,
2013-04-23 20:42:00,53.4,44.6,29.88,ESE,113,6.7,6.7,72,0.00,,,0.00,WUHU216HW,2013-04-24 03:42:00,
2013-04-23 20:47:00,53.2,44.4,29.88,South,180,5.1,6.7,72,0.00,,,0.00,WUHU216HW,2013-04-24 03:47:00,
2013-04-23 20:52:00,52.8,44.4,29.89,SSE,158,4.6,6.0,73,0.00,,,0.00,WUHU216HW,2013-04-24 03:52:00,
2013-04-23 20:57:00,52.7,44.2,29.89,South,180,0.0,5.1,73,0.00,,,0.00,WUHU216HW,2013-04-24 03:57:00,
2013-04-23 21:01:00,52.7,44.2,29.89,SE,135,0.0,4.6,73,0.00,,,0.00,WUHU216HW,2013-04-24 04:01:00,
2013-04-23 21:02:00,52.7,44.2,29.89,SSE,158,4.2,4.6,73,0.00,,,0.00,WUHU216HW,2013-04-24 04:02:00,
2013-04-23 21:08:00,52.5,44.1,29.89,ESE,113,4.2,4.2,73,0.00,,,0.00,WUHU216HW,2013-04-24 04:08:00,
2013-04-23 21:13:00,52.3,44.3,29.89,SSE,158,5.3,5.3,74,0.00,,,0.00,WUHU216HW,2013-04-24 04:13:00,
2013-04-23 21:18:00,52.1,44.1,29.89,SSE,158,3.8,5.3,74,0.00,,,0.00,WUHU216HW,2013-04-24 04:18:00,
2013-04-23 21:23:00,52.1,44.1,29.89,SE,135,5.8,5.8,74,0.00,,,0.00,WUHU216HW,2013-04-24 04:23:00,
2013-04-23 21:28:00,51.9,43.9,29.89,SSE,158,6.2,6.2,74,0.00,,,0.00,WUHU216HW,2013-04-24 04:28:00,
2013-04-23 21:33:00,51.6,43.9,29.89,SE,135,1.1,6.2,75,0.00,,,0.00,WUHU216HW,2013-04-24 04:33:00,
2013-04-23 21:38:00,51.6,43.9,29.89,SSE,158,2.2,7.1,75,0.00,,,0.00,WUHU216HW,2013-04-24 04:38:00,
2013-04-23 21:43:00,51.4,43.7,29.89,SE,135,5.8,7.1,75,0.00,,,0.00,WUHU216HW,2013-04-24 04:43:00,
2013-04-23 21:48:00,51.0,43.4,29.89,SSE,158,2.2,5.8,75,0.00,,,0.00,WUHU216HW,2013-04-24 04:48:00,
2013-04-23 21:53:00,51.0,43.7,29.89,ESE,113,3.1,5.8,76,0.00,,,0.00,WUHU216HW,2013-04-24 04:53:00,
2013-04-23 21:58:00,50.9,43.5,29.90,West,270,6.7,6.9,76,0.00,,,0.00,WUHU216HW,2013-04-24 04:58:00,
2013-04-23 22:03:00,50.7,43.7,29.89,SE,135,1.1,6.9,77,0.00,,,0.00,WUHU216HW,2013-04-24 05:03:00,
2013-04-23 22:08:00,50.7,43.7,29.90,SE,135,5.8,6.7,77,0.00,,,0.00,WUHU216HW,2013-04-24 05:08:00,
2013-04-23 22:13:00,50.5,43.5,29.90,SE,135,1.5,6.0,77,0.00,,,0.00,WUHU216HW,2013-04-24 05:13:00,
2013-04-23 22:18:00,50.5,43.5,29.90,SE,135,2.4,6.0,77,0.00,,,0.00,WUHU216HW,2013-04-24 05:18:00,
2013-04-23 22:23:00,50.5,43.5,29.90,SSE,158,6.4,6.4,77,0.00,,,0.00,WUHU216HW,2013-04-24 05:23:00,
2013-04-23 22:28:00,50.5,43.5,29.90,SSE,158,3.8,7.6,77,0.00,,,0.00,WUHU216HW,2013-04-24 05:28:00,
2013-04-23 22:34:00,50.1,43.5,29.90,SSW,203,3.3,7.6,78,0.00,,,0.00,WUHU216HW,2013-04-24 05:34:00,
2013-04-23 22:39:00,50.1,43.5,29.90,South,180,6.7,6.7,78,0.00,,,0.00,WUHU216HW,2013-04-24 05:39:00,
2013-04-23 22:44:00,49.8,43.1,29.90,SSE,158,6.2,6.7,78,0.00,,,0.00,WUHU216HW,2013-04-24 05:44:00,
2013-04-23 22:49:00,49.8,43.1,29.90,South,180,4.4,6.7,78,0.00,,,0.00,WUHU216HW,2013-04-24 05:49:00,
2013-04-23 22:54:00,49.6,43.0,29.90,SSW,203,9.6,9.6,78,0.00,,,0.00,WUHU216HW,2013-04-24 05:54:00,
2013-04-23 22:59:00,49.6,43.3,29.90,SSW,203,4.9,9.6,79,0.00,,,0.00,WUHU216HW,2013-04-24 05:59:00,
2013-04-23 23:04:00,49.4,43.1,29.90,SSE,158,3.8,9.6,79,0.00,,,0.00,WUHU216HW,2013-04-24 06:04:00,
2013-04-23 23:09:00,49.2,42.9,29.90,SSW,203,1.1,7.8,79,0.00,,,0.00,WUHU216HW,2013-04-24 06:09:00,
2013-04-23 23:14:00,49.2,42.9,29.89,SSW,203,4.9,4.9,79,0.00,,,0.00,WUHU216HW,2013-04-24 06:14:00,
2013-04-23 23:19:00,49.2,42.9,29.89,SSE,158,0.0,6.7,79,0.00,,,0.00,WUHU216HW,2013-04-24 06:19:00,
2013-04-23 23:24:00,49.2,42.9,29.89,SSE,158,6.7,7.1,79,0.00,,,0.00,WUHU216HW,2013-04-24 06:24:00,
2013-04-23 23:29:00,49.1,42.8,29.88,SW,225,0.6,7.1,79,0.00,,,0.00,WUHU216HW,2013-04-24 06:29:00,
2013-04-23 23:34:00,49.2,42.9,29.88,SSW,203,0.0,6.7,79,0.00,,,0.00,WUHU216HW,2013-04-24 06:34:00,
2013-04-23 23:39:00,49.2,42.9,29.88,SW,225,5.5,5.5,79,0.00,,,0.00,WUHU216HW,2013-04-24 06:39:00,
2013-04-23 23:44:00,49.2,42.9,29.88,SW,225,4.2,5.5,79,0.00,,,0.00,WUHU216HW,2013-04-24 06:44:00,
2013-04-23 23:49:00,49.2,43.3,29.88,SSW,203,4.4,5.5,80,0.00,,,0.00,WUHU216HW,2013-04-24 06:49:00,
2013-04-23 23:55:00,49.2,43.3,29.88,SW,225,2.0,4.4,80,0.00,,,0.00,WUHU216HW,2013-04-24 06:55:00,